sensor_id;sensor_type;location;lat;lon;timestamp;temperature;humidity
46309;DHT22;32037;50.820;6.494;2023-11-21T00:00:51;10.90;97.10
46309;DHT22;32037;50.820;6.494;2023-11-21T00:03:19;10.90;97.10
46309;DHT22;32037;50.820;6.494;2023-11-21T00:05:50;10.90;97.10
46309;DHT22;32037;50.820;6.494;2023-11-21T00:08:19;10.90;97.10
46309;DHT22;32037;50.820;6.494;2023-11-21T00:10:47;10.90;97.10
46309;DHT22;32037;50.820;6.494;2023-11-21T00:13:15;10.90;97.10
46309;DHT22;32037;50.820;6.494;2023-11-21T00:15:44;10.90;97.10
46309;DHT22;32037;50.820;6.494;2023-11-21T00:18:14;10.90;97.00
46309;DHT22;32037;50.820;6.494;2023-11-21T00:20:43;10.90;97.10
46309;DHT22;32037;50.820;6.494;2023-11-21T00:23:11;10.90;97.10
46309;DHT22;32037;50.820;6.494;2023-11-21T00:25:39;10.90;97.00
46309;DHT22;32037;50.820;6.494;2023-11-21T00:28:08;10.90;97.10
46309;DHT22;32037;50.820;6.494;2023-11-21T00:30:36;10.90;97.00
46309;DHT22;32037;50.820;6.494;2023-11-21T00:33:04;10.90;97.00
46309;DHT22;32037;50.820;6.494;2023-11-21T00:35:33;10.90;97.00
46309;DHT22;32037;50.820;6.494;2023-11-21T00:38:01;10.90;97.00
46309;DHT22;32037;50.820;6.494;2023-11-21T00:40:32;10.90;97.00
46309;DHT22;32037;50.820;6.494;2023-11-21T00:43:00;10.90;97.00
46309;DHT22;32037;50.820;6.494;2023-11-21T00:45:32;10.90;97.00
46309;DHT22;32037;50.820;6.494;2023-11-21T00:48:00;10.90;97.00
46309;DHT22;32037;50.820;6.494;2023-11-21T00:50:29;10.90;97.00
46309;DHT22;32037;50.820;6.494;2023-11-21T00:52:58;10.90;97.00
46309;DHT22;32037;50.820;6.494;2023-11-21T00:55:27;10.90;97.10
46309;DHT22;32037;50.820;6.494;2023-11-21T00:57:56;10.90;97.00
46309;DHT22;32037;50.820;6.494;2023-11-21T01:00:25;10.90;97.00
46309;DHT22;32037;50.820;6.494;2023-11-21T01:02:53;10.80;97.00
46309;DHT22;32037;50.820;6.494;2023-11-21T01:05:25;10.90;97.10
46309;DHT22;32037;50.820;6.494;2023-11-21T01:07:53;10.80;97.00
46309;DHT22;32037;50.820;6.494;2023-11-21T01:10:23;10.80;97.00
46309;DHT22;32037;50.820;6.494;2023-11-21T01:12:51;10.90;97.10
46309;DHT22;32037;50.820;6.494;2023-11-21T01:15:20;10.80;97.10
46309;DHT22;32037;50.820;6.494;2023-11-21T01:17:48;10.80;97.00
46309;DHT22;32037;50.820;6.494;2023-11-21T01:20:16;10.80;97.00
46309;DHT22;32037;50.820;6.494;2023-11-21T01:22:46;10.80;97.00
46309;DHT22;32037;50.820;6.494;2023-11-21T01:25:15;10.80;97.50
46309;DHT22;32037;50.820;6.494;2023-11-21T01:27:45;10.80;97.10
46309;DHT22;32037;50.820;6.494;2023-11-21T01:30:13;10.80;97.00
46309;DHT22;32037;50.820;6.494;2023-11-21T01:32:43;10.80;97.00
46309;DHT22;32037;50.820;6.494;2023-11-21T01:35:12;10.80;97.00
46309;DHT22;32037;50.820;6.494;2023-11-21T01:37:40;10.80;97.00
46309;DHT22;32037;50.820;6.494;2023-11-21T01:40:10;10.80;97.50
46309;DHT22;32037;50.820;6.494;2023-11-21T01:42:42;10.80;97.00
46309;DHT22;32037;50.820;6.494;2023-11-21T01:45:12;10.80;97.00
46309;DHT22;32037;50.820;6.494;2023-11-21T01:47:42;10.80;97.00
46309;DHT22;32037;50.820;6.494;2023-11-21T01:50:16;10.80;97.00
46309;DHT22;32037;50.820;6.494;2023-11-21T01:52:46;10.80;97.00
46309;DHT22;32037;50.820;6.494;2023-11-21T01:55:15;10.80;97.00
46309;DHT22;32037;50.820;6.494;2023-11-21T01:57:54;10.80;96.90
46309;DHT22;32037;50.820;6.494;2023-11-21T02:00:25;10.80;97.00
46309;DHT22;32037;50.820;6.494;2023-11-21T02:02:55;10.80;97.00
46309;DHT22;32037;50.820;6.494;2023-11-21T02:05:24;10.80;97.00
46309;DHT22;32037;50.820;6.494;2023-11-21T02:07:53;10.80;96.90
46309;DHT22;32037;50.820;6.494;2023-11-21T02:10:21;10.80;97.00
46309;DHT22;32037;50.820;6.494;2023-11-21T02:12:51;10.80;96.90
46309;DHT22;32037;50.820;6.494;2023-11-21T02:15:20;10.80;96.90
46309;DHT22;32037;50.820;6.494;2023-11-21T02:17:51;10.80;96.90
46309;DHT22;32037;50.820;6.494;2023-11-21T02:20:21;10.80;96.90
46309;DHT22;32037;50.820;6.494;2023-11-21T02:22:55;10.80;96.90
46309;DHT22;32037;50.820;6.494;2023-11-21T02:25:27;10.80;96.90
46309;DHT22;32037;50.820;6.494;2023-11-21T02:27:57;10.80;96.90
46309;DHT22;32037;50.820;6.494;2023-11-21T02:30:25;10.80;96.90
46309;DHT22;32037;50.820;6.494;2023-11-21T02:32:54;10.80;96.90
46309;DHT22;32037;50.820;6.494;2023-11-21T02:35:25;10.80;96.90
46309;DHT22;32037;50.820;6.494;2023-11-21T02:37:55;10.80;96.90
46309;DHT22;32037;50.820;6.494;2023-11-21T02:40:24;10.80;96.90
46309;DHT22;32037;50.820;6.494;2023-11-21T02:42:54;10.80;96.90
46309;DHT22;32037;50.820;6.494;2023-11-21T02:45:22;10.80;96.90
46309;DHT22;32037;50.820;6.494;2023-11-21T02:47:51;10.80;96.90
46309;DHT22;32037;50.820;6.494;2023-11-21T02:50:25;10.80;96.90
46309;DHT22;32037;50.820;6.494;2023-11-21T02:52:55;10.80;96.90
46309;DHT22;32037;50.820;6.494;2023-11-21T02:55:25;10.80;96.90
46309;DHT22;32037;50.820;6.494;2023-11-21T02:57:53;10.80;96.90
46309;DHT22;32037;50.820;6.494;2023-11-21T03:00:23;10.80;96.90
46309;DHT22;32037;50.820;6.494;2023-11-21T03:02:53;10.80;96.90
46309;DHT22;32037;50.820;6.494;2023-11-21T03:05:22;10.80;96.90
46309;DHT22;32037;50.820;6.494;2023-11-21T03:07:50;10.80;96.90
46309;DHT22;32037;50.820;6.494;2023-11-21T03:10:20;10.80;96.90
46309;DHT22;32037;50.820;6.494;2023-11-21T03:12:49;10.80;96.90
46309;DHT22;32037;50.820;6.494;2023-11-21T03:15:17;10.80;96.90
46309;DHT22;32037;50.820;6.494;2023-11-21T03:17:45;10.80;96.90
46309;DHT22;32037;50.820;6.494;2023-11-21T03:20:16;10.80;96.90
46309;DHT22;32037;50.820;6.494;2023-11-21T03:22:44;10.80;97.00
46309;DHT22;32037;50.820;6.494;2023-11-21T03:25:13;10.80;96.90
46309;DHT22;32037;50.820;6.494;2023-11-21T03:27:43;10.80;96.90
46309;DHT22;32037;50.820;6.494;2023-11-21T03:30:11;10.80;96.90
46309;DHT22;32037;50.820;6.494;2023-11-21T03:32:41;10.80;96.90
46309;DHT22;32037;50.820;6.494;2023-11-21T03:35:09;10.80;96.90
46309;DHT22;32037;50.820;6.494;2023-11-21T03:37:37;10.80;96.90
46309;DHT22;32037;50.820;6.494;2023-11-21T03:40:09;10.80;96.90
46309;DHT22;32037;50.820;6.494;2023-11-21T03:42:39;10.80;96.90
46309;DHT22;32037;50.820;6.494;2023-11-21T03:45:09;10.80;96.90
46309;DHT22;32037;50.820;6.494;2023-11-21T03:47:40;10.80;96.90
46309;DHT22;32037;50.820;6.494;2023-11-21T03:50:09;10.80;96.90
46309;DHT22;32037;50.820;6.494;2023-11-21T03:52:37;10.80;96.90
46309;DHT22;32037;50.820;6.494;2023-11-21T03:55:06;10.80;96.90
46309;DHT22;32037;50.820;6.494;2023-11-21T03:57:34;10.80;96.90
46309;DHT22;32037;50.820;6.494;2023-11-21T04:00:04;10.80;96.90
46309;DHT22;32037;50.820;6.494;2023-11-21T04:02:39;10.80;96.80
46309;DHT22;32037;50.820;6.494;2023-11-21T04:05:07;10.80;96.80
46309;DHT22;32037;50.820;6.494;2023-11-21T04:07:36;10.70;96.80
46309;DHT22;32037;50.820;6.494;2023-11-21T04:10:06;10.80;96.90
46309;DHT22;32037;50.820;6.494;2023-11-21T04:12:35;10.80;96.80
46309;DHT22;32037;50.820;6.494;2023-11-21T04:15:04;10.70;96.80
46309;DHT22;32037;50.820;6.494;2023-11-21T04:17:32;10.80;96.80
46309;DHT22;32037;50.820;6.494;2023-11-21T04:20:02;10.70;96.80
46309;DHT22;32037;50.820;6.494;2023-11-21T04:22:30;10.70;96.80
46309;DHT22;32037;50.820;6.494;2023-11-21T04:24:58;10.70;96.80
46309;DHT22;32037;50.820;6.494;2023-11-21T04:27:26;10.70;96.80
46309;DHT22;32037;50.820;6.494;2023-11-21T04:29:54;10.70;96.80
46309;DHT22;32037;50.820;6.494;2023-11-21T04:32:22;10.70;96.80
46309;DHT22;32037;50.820;6.494;2023-11-21T04:34:50;10.70;96.80
46309;DHT22;32037;50.820;6.494;2023-11-21T04:37:20;10.70;96.80
46309;DHT22;32037;50.820;6.494;2023-11-21T04:39:48;10.70;96.80
46309;DHT22;32037;50.820;6.494;2023-11-21T04:42:16;10.70;96.80
46309;DHT22;32037;50.820;6.494;2023-11-21T04:44:44;10.70;96.90
46309;DHT22;32037;50.820;6.494;2023-11-21T04:47:12;10.70;96.80
46309;DHT22;32037;50.820;6.494;2023-11-21T04:49:42;10.70;96.90
46309;DHT22;32037;50.820;6.494;2023-11-21T04:52:10;10.70;96.80
46309;DHT22;32037;50.820;6.494;2023-11-21T04:54:40;10.70;96.90
46309;DHT22;32037;50.820;6.494;2023-11-21T04:57:08;10.70;96.80
46309;DHT22;32037;50.820;6.494;2023-11-21T04:59:36;10.70;96.80
46309;DHT22;32037;50.820;6.494;2023-11-21T05:02:05;10.70;96.80
46309;DHT22;32037;50.820;6.494;2023-11-21T05:04:33;10.70;96.80
46309;DHT22;32037;50.820;6.494;2023-11-21T05:07:01;10.70;96.70
46309;DHT22;32037;50.820;6.494;2023-11-21T05:09:29;10.70;96.80
46309;DHT22;32037;50.820;6.494;2023-11-21T05:12:01;10.70;96.70
46309;DHT22;32037;50.820;6.494;2023-11-21T05:14:30;10.70;96.80
46309;DHT22;32037;50.820;6.494;2023-11-21T05:16:58;10.70;96.70
46309;DHT22;32037;50.820;6.494;2023-11-21T05:19:26;10.70;96.80
46309;DHT22;32037;50.820;6.494;2023-11-21T05:21:55;10.70;96.80
46309;DHT22;32037;50.820;6.494;2023-11-21T05:24:23;10.70;96.80
46309;DHT22;32037;50.820;6.494;2023-11-21T05:26:51;10.70;96.70
46309;DHT22;32037;50.820;6.494;2023-11-21T05:29:21;10.70;96.80
46309;DHT22;32037;50.820;6.494;2023-11-21T05:31:49;10.70;96.70
46309;DHT22;32037;50.820;6.494;2023-11-21T05:34:18;10.70;96.70
46309;DHT22;32037;50.820;6.494;2023-11-21T05:36:47;10.70;96.80
46309;DHT22;32037;50.820;6.494;2023-11-21T05:39:15;10.70;96.80
46309;DHT22;32037;50.820;6.494;2023-11-21T05:41:44;10.70;96.80
46309;DHT22;32037;50.820;6.494;2023-11-21T05:44:15;10.70;96.80
46309;DHT22;32037;50.820;6.494;2023-11-21T05:46:45;10.70;96.90
46309;DHT22;32037;50.820;6.494;2023-11-21T05:49:13;10.70;96.90
46309;DHT22;32037;50.820;6.494;2023-11-21T05:51:42;10.70;96.80
46309;DHT22;32037;50.820;6.494;2023-11-21T05:54:12;10.70;96.80
46309;DHT22;32037;50.820;6.494;2023-11-21T05:56:40;10.70;96.80
46309;DHT22;32037;50.820;6.494;2023-11-21T05:59:08;10.70;96.80
46309;DHT22;32037;50.820;6.494;2023-11-21T06:01:37;10.70;96.70
46309;DHT22;32037;50.820;6.494;2023-11-21T06:04:07;10.70;96.70
46309;DHT22;32037;50.820;6.494;2023-11-21T06:06:36;10.70;96.70
46309;DHT22;32037;50.820;6.494;2023-11-21T06:09:06;10.70;96.70
46309;DHT22;32037;50.820;6.494;2023-11-21T06:11:35;10.70;96.70
46309;DHT22;32037;50.820;6.494;2023-11-21T06:14:04;10.70;96.70
46309;DHT22;32037;50.820;6.494;2023-11-21T06:16:34;10.70;96.70
46309;DHT22;32037;50.820;6.494;2023-11-21T06:19:02;10.70;96.70
46309;DHT22;32037;50.820;6.494;2023-11-21T06:21:33;10.70;96.70
46309;DHT22;32037;50.820;6.494;2023-11-21T06:24:02;10.70;96.70
46309;DHT22;32037;50.820;6.494;2023-11-21T06:26:30;10.70;97.00
46309;DHT22;32037;50.820;6.494;2023-11-21T06:28:58;10.70;96.70
46309;DHT22;32037;50.820;6.494;2023-11-21T06:31:27;10.70;96.70
46309;DHT22;32037;50.820;6.494;2023-11-21T06:33:55;10.70;96.70
46309;DHT22;32037;50.820;6.494;2023-11-21T06:36:26;10.70;96.70
46309;DHT22;32037;50.820;6.494;2023-11-21T06:38:56;10.70;96.70
46309;DHT22;32037;50.820;6.494;2023-11-21T06:41:24;10.70;96.70
46309;DHT22;32037;50.820;6.494;2023-11-21T06:43:52;10.70;96.70
46309;DHT22;32037;50.820;6.494;2023-11-21T06:46:20;10.70;96.70
46309;DHT22;32037;50.820;6.494;2023-11-21T06:48:48;10.70;96.70
46309;DHT22;32037;50.820;6.494;2023-11-21T06:51:16;10.70;96.70
46309;DHT22;32037;50.820;6.494;2023-11-21T06:53:46;10.70;96.70
46309;DHT22;32037;50.820;6.494;2023-11-21T06:56:18;10.70;96.70
46309;DHT22;32037;50.820;6.494;2023-11-21T06:58:47;10.70;96.70
46309;DHT22;32037;50.820;6.494;2023-11-21T07:01:16;10.70;96.70
46309;DHT22;32037;50.820;6.494;2023-11-21T07:03:44;10.70;96.70
46309;DHT22;32037;50.820;6.494;2023-11-21T07:06:12;10.60;96.70
46309;DHT22;32037;50.820;6.494;2023-11-21T07:08:45;10.70;96.70
46309;DHT22;32037;50.820;6.494;2023-11-21T07:11:15;10.70;96.80
46309;DHT22;32037;50.820;6.494;2023-11-21T07:13:45;10.60;96.70
46309;DHT22;32037;50.820;6.494;2023-11-21T07:16:16;10.70;96.80
46309;DHT22;32037;50.820;6.494;2023-11-21T07:18:45;10.60;96.70
46309;DHT22;32037;50.820;6.494;2023-11-21T07:21:16;10.60;96.70
46309;DHT22;32037;50.820;6.494;2023-11-21T07:23:44;10.60;96.70
46309;DHT22;32037;50.820;6.494;2023-11-21T07:26:12;10.60;96.70
46309;DHT22;32037;50.820;6.494;2023-11-21T07:28:40;10.60;96.70
46309;DHT22;32037;50.820;6.494;2023-11-21T07:31:11;10.60;96.70
46309;DHT22;32037;50.820;6.494;2023-11-21T07:33:40;10.60;96.60
46309;DHT22;32037;50.820;6.494;2023-11-21T07:36:10;10.60;96.60
46309;DHT22;32037;50.820;6.494;2023-11-21T07:38:38;10.60;96.60
46309;DHT22;32037;50.820;6.494;2023-11-21T07:41:07;10.60;96.70
46309;DHT22;32037;50.820;6.494;2023-11-21T07:43:51;10.60;96.70
46309;DHT22;32037;50.820;6.494;2023-11-21T07:46:22;10.60;96.60
46309;DHT22;32037;50.820;6.494;2023-11-21T07:48:51;10.60;96.70
46309;DHT22;32037;50.820;6.494;2023-11-21T07:51:19;10.60;96.60
46309;DHT22;32037;50.820;6.494;2023-11-21T07:53:47;10.60;96.60
46309;DHT22;32037;50.820;6.494;2023-11-21T07:56:15;10.60;96.70
46309;DHT22;32037;50.820;6.494;2023-11-21T07:58:43;10.60;96.60
46309;DHT22;32037;50.820;6.494;2023-11-21T08:01:12;10.60;96.60
46309;DHT22;32037;50.820;6.494;2023-11-21T08:03:42;10.60;96.60
46309;DHT22;32037;50.820;6.494;2023-11-21T08:06:11;10.60;96.60
46309;DHT22;32037;50.820;6.494;2023-11-21T08:08:39;10.60;96.70
46309;DHT22;32037;50.820;6.494;2023-11-21T08:11:07;10.60;96.70
46309;DHT22;32037;50.820;6.494;2023-11-21T08:13:36;10.60;96.60
46309;DHT22;32037;50.820;6.494;2023-11-21T08:16:06;10.60;96.60
46309;DHT22;32037;50.820;6.494;2023-11-21T08:18:34;10.60;96.70
46309;DHT22;32037;50.820;6.494;2023-11-21T08:21:04;10.70;96.70
46309;DHT22;32037;50.820;6.494;2023-11-21T08:23:32;10.60;96.60
46309;DHT22;32037;50.820;6.494;2023-11-21T08:26:05;10.60;96.70
46309;DHT22;32037;50.820;6.494;2023-11-21T08:28:33;10.60;96.70
46309;DHT22;32037;50.820;6.494;2023-11-21T08:31:04;10.60;96.70
46309;DHT22;32037;50.820;6.494;2023-11-21T08:33:32;10.60;96.70
46309;DHT22;32037;50.820;6.494;2023-11-21T08:36:00;10.60;96.70
46309;DHT22;32037;50.820;6.494;2023-11-21T08:38:32;10.60;96.70
46309;DHT22;32037;50.820;6.494;2023-11-21T08:41:05;10.60;96.60
46309;DHT22;32037;50.820;6.494;2023-11-21T08:43:35;10.60;96.60
46309;DHT22;32037;50.820;6.494;2023-11-21T08:46:06;10.60;96.60
46309;DHT22;32037;50.820;6.494;2023-11-21T08:48:36;10.60;96.70
46309;DHT22;32037;50.820;6.494;2023-11-21T08:51:04;10.60;96.70
46309;DHT22;32037;50.820;6.494;2023-11-21T08:53:34;10.60;96.70
46309;DHT22;32037;50.820;6.494;2023-11-21T08:56:02;10.60;96.70
46309;DHT22;32037;50.820;6.494;2023-11-21T08:58:31;10.60;96.90
46309;DHT22;32037;50.820;6.494;2023-11-21T09:01:00;10.60;96.80
46309;DHT22;32037;50.820;6.494;2023-11-21T09:03:28;10.60;96.80
46309;DHT22;32037;50.820;6.494;2023-11-21T09:05:58;10.60;96.70
46309;DHT22;32037;50.820;6.494;2023-11-21T09:08:26;10.60;96.90
46309;DHT22;32037;50.820;6.494;2023-11-21T09:10:57;10.60;96.80
46309;DHT22;32037;50.820;6.494;2023-11-21T09:13:26;10.60;96.80
46309;DHT22;32037;50.820;6.494;2023-11-21T09:15:54;10.60;96.80
46309;DHT22;32037;50.820;6.494;2023-11-21T09:18:22;10.60;96.80
46309;DHT22;32037;50.820;6.494;2023-11-21T09:20:50;10.60;96.80
46309;DHT22;32037;50.820;6.494;2023-11-21T09:23:19;10.60;96.80
46309;DHT22;32037;50.820;6.494;2023-11-21T09:25:47;10.60;96.70
46309;DHT22;32037;50.820;6.494;2023-11-21T09:28:21;10.60;96.80
46309;DHT22;32037;50.820;6.494;2023-11-21T09:30:48;10.60;96.80
46309;DHT22;32037;50.820;6.494;2023-11-21T09:33:20;10.60;96.70
46309;DHT22;32037;50.820;6.494;2023-11-21T09:35:49;10.60;96.70
46309;DHT22;32037;50.820;6.494;2023-11-21T09:38:19;10.60;96.80
46309;DHT22;32037;50.820;6.494;2023-11-21T09:40:47;10.60;96.80
46309;DHT22;32037;50.820;6.494;2023-11-21T09:43:17;10.60;96.80
46309;DHT22;32037;50.820;6.494;2023-11-21T09:45:48;10.60;96.80
46309;DHT22;32037;50.820;6.494;2023-11-21T09:48:20;10.60;96.80
46309;DHT22;32037;50.820;6.494;2023-11-21T09:50:50;10.60;96.80
46309;DHT22;32037;50.820;6.494;2023-11-21T09:53:22;10.60;96.70
46309;DHT22;32037;50.820;6.494;2023-11-21T09:55:52;10.60;96.80
46309;DHT22;32037;50.820;6.494;2023-11-21T09:58:21;10.60;96.80
46309;DHT22;32037;50.820;6.494;2023-11-21T10:00:55;10.60;96.70
46309;DHT22;32037;50.820;6.494;2023-11-21T10:03:25;10.60;96.70
46309;DHT22;32037;50.820;6.494;2023-11-21T10:05:56;10.60;96.70
46309;DHT22;32037;50.820;6.494;2023-11-21T10:08:27;10.60;96.80
46309;DHT22;32037;50.820;6.494;2023-11-21T10:11:13;10.60;96.70
46309;DHT22;32037;50.820;6.494;2023-11-21T10:13:43;10.60;96.70
46309;DHT22;32037;50.820;6.494;2023-11-21T10:16:18;10.60;96.70
46309;DHT22;32037;50.820;6.494;2023-11-21T10:18:52;10.60;96.70
46309;DHT22;32037;50.820;6.494;2023-11-21T10:21:29;10.60;96.70
46309;DHT22;32037;50.820;6.494;2023-11-21T10:23:57;10.60;96.70
46309;DHT22;32037;50.820;6.494;2023-11-21T10:26:26;10.60;96.70
46309;DHT22;32037;50.820;6.494;2023-11-21T10:28:57;10.60;96.70
46309;DHT22;32037;50.820;6.494;2023-11-21T10:31:28;10.60;96.70
46309;DHT22;32037;50.820;6.494;2023-11-21T10:34:11;10.60;96.70
46309;DHT22;32037;50.820;6.494;2023-11-21T10:36:39;10.60;96.60
46309;DHT22;32037;50.820;6.494;2023-11-21T10:39:08;10.60;96.80
46309;DHT22;32037;50.820;6.494;2023-11-21T10:41:36;10.60;97.50
46309;DHT22;32037;50.820;6.494;2023-11-21T10:44:08;10.60;97.40
46309;DHT22;32037;50.820;6.494;2023-11-21T10:46:39;10.60;97.20
46309;DHT22;32037;50.820;6.494;2023-11-21T10:49:10;10.60;97.10
46309;DHT22;32037;50.820;6.494;2023-11-21T10:51:43;10.60;97.10
46309;DHT22;32037;50.820;6.494;2023-11-21T10:54:11;10.60;97.10
46309;DHT22;32037;50.820;6.494;2023-11-21T10:56:40;10.60;97.00
46309;DHT22;32037;50.820;6.494;2023-11-21T10:59:13;10.60;97.00
46309;DHT22;32037;50.820;6.494;2023-11-21T11:01:50;10.60;97.00
46309;DHT22;32037;50.820;6.494;2023-11-21T11:04:21;10.60;97.40
46309;DHT22;32037;50.820;6.494;2023-11-21T11:06:57;10.60;96.90
46309;DHT22;32037;50.820;6.494;2023-11-21T11:09:35;10.60;96.80
46309;DHT22;32037;50.820;6.494;2023-11-21T11:12:03;10.60;96.70
46309;DHT22;32037;50.820;6.494;2023-11-21T11:14:36;10.60;96.90
46309;DHT22;32037;50.820;6.494;2023-11-21T11:17:10;10.60;96.90
46309;DHT22;32037;50.820;6.494;2023-11-21T11:19:38;10.60;96.80
46309;DHT22;32037;50.820;6.494;2023-11-21T11:22:18;10.70;97.20
46309;DHT22;32037;50.820;6.494;2023-11-21T11:25:17;10.60;96.70
46309;DHT22;32037;50.820;6.494;2023-11-21T11:27:54;10.60;96.70
46309;DHT22;32037;50.820;6.494;2023-11-21T11:30:33;10.60;96.70
46309;DHT22;32037;50.820;6.494;2023-11-21T11:33:15;10.60;96.70
46309;DHT22;32037;50.820;6.494;2023-11-21T11:35:59;10.60;96.60
46309;DHT22;32037;50.820;6.494;2023-11-21T11:38:31;10.60;96.70
46309;DHT22;32037;50.820;6.494;2023-11-21T11:41:02;10.60;96.60
46309;DHT22;32037;50.820;6.494;2023-11-21T11:43:34;10.60;96.60
46309;DHT22;32037;50.820;6.494;2023-11-21T11:46:13;10.60;96.70
46309;DHT22;32037;50.820;6.494;2023-11-21T11:48:45;10.60;96.70
46309;DHT22;32037;50.820;6.494;2023-11-21T11:51:14;10.60;96.70
46309;DHT22;32037;50.820;6.494;2023-11-21T11:53:45;10.60;96.70
46309;DHT22;32037;50.820;6.494;2023-11-21T11:56:23;10.60;96.70
46309;DHT22;32037;50.820;6.494;2023-11-21T11:58:53;10.60;96.70
46309;DHT22;32037;50.820;6.494;2023-11-21T12:01:24;10.60;96.70
46309;DHT22;32037;50.820;6.494;2023-11-21T12:04:25;10.60;96.70
46309;DHT22;32037;50.820;6.494;2023-11-21T12:07:01;10.60;96.70
46309;DHT22;32037;50.820;6.494;2023-11-21T12:09:32;10.60;96.70
46309;DHT22;32037;50.820;6.494;2023-11-21T12:12:02;10.60;96.70
46309;DHT22;32037;50.820;6.494;2023-11-21T12:14:31;10.60;96.70
46309;DHT22;32037;50.820;6.494;2023-11-21T12:16:59;10.60;96.70
46309;DHT22;32037;50.820;6.494;2023-11-21T12:19:30;10.60;96.70
46309;DHT22;32037;50.820;6.494;2023-11-21T12:21:59;10.60;96.70
46309;DHT22;32037;50.820;6.494;2023-11-21T12:24:27;10.60;96.70
46309;DHT22;32037;50.820;6.494;2023-11-21T12:26:56;10.60;96.60
46309;DHT22;32037;50.820;6.494;2023-11-21T12:29:24;10.60;96.70
46309;DHT22;32037;50.820;6.494;2023-11-21T12:31:52;10.60;96.60
46309;DHT22;32037;50.820;6.494;2023-11-21T12:34:23;10.60;96.60
46309;DHT22;32037;50.820;6.494;2023-11-21T12:36:55;10.70;96.70
46309;DHT22;32037;50.820;6.494;2023-11-21T12:39:23;10.60;96.60
46309;DHT22;32037;50.820;6.494;2023-11-21T12:41:51;10.60;96.70
46309;DHT22;32037;50.820;6.494;2023-11-21T12:44:23;10.60;96.60
46309;DHT22;32037;50.820;6.494;2023-11-21T12:46:51;10.60;96.70
46309;DHT22;32037;50.820;6.494;2023-11-21T12:49:20;10.70;96.70
46309;DHT22;32037;50.820;6.494;2023-11-21T12:51:48;10.60;96.60
46309;DHT22;32037;50.820;6.494;2023-11-21T12:54:21;10.60;96.60
46309;DHT22;32037;50.820;6.494;2023-11-21T12:56:49;10.60;96.60
46309;DHT22;32037;50.820;6.494;2023-11-21T12:59:17;10.60;96.60
46309;DHT22;32037;50.820;6.494;2023-11-21T13:01:49;10.60;96.70
46309;DHT22;32037;50.820;6.494;2023-11-21T13:04:18;10.60;96.70
46309;DHT22;32037;50.820;6.494;2023-11-21T13:06:46;10.60;96.70
46309;DHT22;32037;50.820;6.494;2023-11-21T13:09:14;10.60;96.70
46309;DHT22;32037;50.820;6.494;2023-11-21T13:11:50;10.60;96.70
46309;DHT22;32037;50.820;6.494;2023-11-21T13:14:18;10.70;96.70
46309;DHT22;32037;50.820;6.494;2023-11-21T13:16:46;10.70;96.80
46309;DHT22;32037;50.820;6.494;2023-11-21T13:19:14;10.60;96.70
46309;DHT22;32037;50.820;6.494;2023-11-21T13:21:42;10.70;96.80
46309;DHT22;32037;50.820;6.494;2023-11-21T13:24:10;10.70;96.80
46309;DHT22;32037;50.820;6.494;2023-11-21T13:26:39;10.70;96.70
46309;DHT22;32037;50.820;6.494;2023-11-21T13:29:09;10.70;96.70
46309;DHT22;32037;50.820;6.494;2023-11-21T13:31:43;10.70;96.70
46309;DHT22;32037;50.820;6.494;2023-11-21T13:34:11;10.70;96.70
46309;DHT22;32037;50.820;6.494;2023-11-21T13:36:47;10.70;97.30
46309;DHT22;32037;50.820;6.494;2023-11-21T13:39:15;10.70;97.60
46309;DHT22;32037;50.820;6.494;2023-11-21T13:41:44;10.70;97.50
46309;DHT22;32037;50.820;6.494;2023-11-21T13:44:16;10.70;97.30
46309;DHT22;32037;50.820;6.494;2023-11-21T13:46:54;10.70;97.10
46309;DHT22;32037;50.820;6.494;2023-11-21T13:49:24;10.70;97.10
46309;DHT22;32037;50.820;6.494;2023-11-21T13:51:53;10.70;97.00
46309;DHT22;32037;50.820;6.494;2023-11-21T13:54:22;10.70;97.00
46309;DHT22;32037;50.820;6.494;2023-11-21T13:56:51;10.60;96.90
46309;DHT22;32037;50.820;6.494;2023-11-21T13:59:23;10.70;96.90
46309;DHT22;32037;50.820;6.494;2023-11-21T14:01:53;10.70;96.90
46309;DHT22;32037;50.820;6.494;2023-11-21T14:04:46;10.70;96.90
46309;DHT22;32037;50.820;6.494;2023-11-21T14:07:23;10.70;96.90
46309;DHT22;32037;50.820;6.494;2023-11-21T14:10:00;10.70;96.90
46309;DHT22;32037;50.820;6.494;2023-11-21T14:12:31;10.70;96.80
46309;DHT22;32037;50.820;6.494;2023-11-21T14:15:07;10.70;96.90
46309;DHT22;32037;50.820;6.494;2023-11-21T14:17:38;10.60;96.80
46309;DHT22;32037;50.820;6.494;2023-11-21T14:20:09;10.70;96.80
46309;DHT22;32037;50.820;6.494;2023-11-21T14:22:43;10.70;96.80
46309;DHT22;32037;50.820;6.494;2023-11-21T14:25:12;10.70;96.80
46309;DHT22;32037;50.820;6.494;2023-11-21T14:27:41;10.70;96.90
46309;DHT22;32037;50.820;6.494;2023-11-21T14:30:13;10.70;96.80
46309;DHT22;32037;50.820;6.494;2023-11-21T14:32:41;10.70;96.70
46309;DHT22;32037;50.820;6.494;2023-11-21T14:35:10;10.70;96.70
46309;DHT22;32037;50.820;6.494;2023-11-21T14:37:38;10.70;96.80
46309;DHT22;32037;50.820;6.494;2023-11-21T14:40:07;10.70;96.70
46309;DHT22;32037;50.820;6.494;2023-11-21T14:42:35;10.70;96.70
46309;DHT22;32037;50.820;6.494;2023-11-21T14:45:07;10.70;96.70
46309;DHT22;32037;50.820;6.494;2023-11-21T14:47:36;10.70;96.80
46309;DHT22;32037;50.820;6.494;2023-11-21T14:50:09;10.70;96.70
46309;DHT22;32037;50.820;6.494;2023-11-21T14:53:03;10.70;96.70
46309;DHT22;32037;50.820;6.494;2023-11-21T14:55:33;10.70;96.70
46309;DHT22;32037;50.820;6.494;2023-11-21T14:58:14;10.70;96.70
46309;DHT22;32037;50.820;6.494;2023-11-21T15:00:46;10.70;96.70
46309;DHT22;32037;50.820;6.494;2023-11-21T15:03:21;10.70;96.70
46309;DHT22;32037;50.820;6.494;2023-11-21T15:06:08;10.70;96.70
46309;DHT22;32037;50.820;6.494;2023-11-21T15:08:54;10.70;96.70
46309;DHT22;32037;50.820;6.494;2023-11-21T15:11:39;10.70;96.70
46309;DHT22;32037;50.820;6.494;2023-11-21T15:14:08;10.70;96.80
46309;DHT22;32037;50.820;6.494;2023-11-21T15:16:36;10.70;96.80
46309;DHT22;32037;50.820;6.494;2023-11-21T15:19:08;10.70;96.70
46309;DHT22;32037;50.820;6.494;2023-11-21T15:21:39;10.70;96.80
46309;DHT22;32037;50.820;6.494;2023-11-21T15:24:07;10.70;96.80
46309;DHT22;32037;50.820;6.494;2023-11-21T15:26:37;10.70;96.80
46309;DHT22;32037;50.820;6.494;2023-11-21T15:29:08;10.60;96.80
46309;DHT22;32037;50.820;6.494;2023-11-21T15:31:37;10.70;96.80
46309;DHT22;32037;50.820;6.494;2023-11-21T15:34:09;10.70;96.80
46309;DHT22;32037;50.820;6.494;2023-11-21T15:36:37;10.70;96.80
46309;DHT22;32037;50.820;6.494;2023-11-21T15:39:05;10.70;96.80
46309;DHT22;32037;50.820;6.494;2023-11-21T15:41:34;10.70;96.90
46309;DHT22;32037;50.820;6.494;2023-11-21T15:44:02;10.70;96.80
46309;DHT22;32037;50.820;6.494;2023-11-21T15:46:31;10.70;96.90
46309;DHT22;32037;50.820;6.494;2023-11-21T15:48:59;10.70;96.90